TimeMST,TemperatureF,Dew PointF,Humidity,Sea Level PressureIn,VisibilityMPH,Wind Direction,Wind SpeedMPH,Gust SpeedMPH,PrecipitationIn,Events,Conditions,WindDirDegrees,DateUTC
12:15 AM,18.0,6.8,62,30.26,10.0,North,3.5,-,N/A,,Clear,360,2013-01-09 07:15:00
12:35 AM,19.2,7.2,59,30.27,10.0,NNE,4.6,-,N/A,,Clear,30,2013-01-09 07:35:00
12:55 AM,13.1,3.6,66,30.28,10.0,NE,5.8,-,N/A,,Clear,40,2013-01-09 07:55:00
1:15 AM,16.0,6.4,66,30.28,10.0,North,4.6,-,N/A,,Clear,360,2013-01-09 08:15:00
1:35 AM,13.8,4.8,67,30.28,10.0,NNW,4.6,-,N/A,,Clear,330,2013-01-09 08:35:00
1:55 AM,15.6,6.6,68,30.28,10.0,NW,5.8,-,N/A,,Clear,320,2013-01-09 08:55:00
2:15 AM,14.4,6.1,70,30.28,10.0,North,5.8,-,N/A,,Clear,350,2013-01-09 09:15:00
2:35 AM,14.0,6.3,71,30.27,10.0,NW,6.9,-,N/A,,Clear,320,2013-01-09 09:35:00
2:55 AM,16.0,8.1,71,30.28,10.0,NNW,5.8,-,N/A,,Clear,330,2013-01-09 09:55:00
3:15 AM,15.1,7.2,71,30.29,10.0,SW,5.8,-,N/A,,Clear,220,2013-01-09 10:15:00
3:35 AM,15.4,7.5,71,30.31,10.0,Calm,Calm,-,N/A,,Clear,0,2013-01-09 10:35:00
3:55 AM,15.6,7.2,69,30.31,10.0,Calm,Calm,-,N/A,,Clear,0,2013-01-09 10:55:00
4:15 AM,16.7,8.2,69,30.32,10.0,West,4.6,-,N/A,,Clear,270,2013-01-09 11:15:00
4:35 AM,15.4,7.0,69,30.33,10.0,Calm,Calm,-,N/A,,Clear,0,2013-01-09 11:35:00
4:55 AM,12.0,5.4,75,30.33,10.0,NNW,4.6,-,N/A,,Clear,340,2013-01-09 11:55:00
5:15 AM,11.5,5.9,78,30.34,10.0,NW,6.9,-,N/A,,Clear,320,2013-01-09 12:15:00
5:55 AM,14.7,8.8,77,30.35,10.0,NNW,6.9,-,N/A,,Clear,340,2013-01-09 12:55:00
6:15 AM,14.9,8.8,77,30.37,10.0,North,4.6,-,N/A,,Clear,360,2013-01-09 13:15:00
6:35 AM,14.7,8.6,77,30.37,10.0,NNW,5.8,-,N/A,,Clear,330,2013-01-09 13:35:00
6:55 AM,14.9,8.8,77,30.38,10.0,NNW,5.8,-,N/A,,Clear,330,2013-01-09 13:55:00
7:15 AM,14.9,9.3,79,30.40,10.0,WNW,6.9,-,N/A,,Clear,300,2013-01-09 14:15:00
7:35 AM,18.1,11.1,74,30.40,10.0,NNW,4.6,-,N/A,,Clear,330,2013-01-09 14:35:00
7:55 AM,15.6,10.2,79,30.41,10.0,NNW,4.6,-,N/A,,Clear,340,2013-01-09 14:55:00
8:15 AM,19.9,12.7,74,30.43,10.0,Calm,Calm,-,N/A,,Clear,0,2013-01-09 15:15:00
8:35 AM,25.2,15.4,67,30.43,10.0,SSW,3.5,-,N/A,,Clear,200,2013-01-09 15:35:00
8:55 AM,29.1,17.1,61,30.43,10.0,NNW,3.5,-,N/A,,Clear,330,2013-01-09 15:55:00
9:15 AM,33.8,17.6,52,30.42,10.0,North,5.8,-,N/A,,Clear,350,2013-01-09 16:15:00
9:35 AM,36.0,17.4,47,30.43,10.0,North,4.6,-,N/A,,Clear,350,2013-01-09 16:35:00
9:55 AM,39.6,17.6,41,30.41,10.0,North,6.9,-,N/A,,Clear,10,2013-01-09 16:55:00
10:15 AM,42.1,17.4,37,30.41,10.0,NNE,6.9,-,N/A,,Clear,20,2013-01-09 17:15:00
10:35 AM,45.1,16.3,32,30.41,10.0,Calm,Calm,-,N/A,,Clear,0,2013-01-09 17:35:00
11:15 AM,47.5,16.0,28,30.39,10.0,East,5.8,-,N/A,,Clear,90,2013-01-09 18:15:00
11:35 AM,48.9,15.3,26,30.37,10.0,East,8.1,-,N/A,,Clear,100,2013-01-09 18:35:00
11:55 AM,49.8,14.5,25,30.36,10.0,ENE,9.2,-,N/A,,Clear,70,2013-01-09 18:55:00
12:15 PM,49.8,13.6,24,30.33,10.0,East,5.8,-,N/A,,Clear,80,2013-01-09 19:15:00
12:35 PM,50.0,12.0,22,30.32,10.0,NNE,8.1,-,N/A,,Clear,30,2013-01-09 19:35:00
12:55 PM,51.1,10.8,20,30.31,10.0,NNE,5.8,9.2,N/A,,Clear,20,2013-01-09 19:55:00
1:15 PM,50.4,10.2,20,30.29,10.0,Calm,Calm,-,N/A,,Clear,0,2013-01-09 20:15:00
1:35 PM,51.4,10.0,19,30.29,10.0,East,4.6,-,N/A,,Clear,80,2013-01-09 20:35:00
1:55 PM,51.8,9.3,18,30.28,10.0,NE,4.6,-,N/A,,Clear,50,2013-01-09 20:55:00
2:15 PM,51.8,9.9,19,30.27,10.0,ENE,8.1,-,N/A,,Clear,60,2013-01-09 21:15:00
2:35 PM,51.3,10.9,20,30.27,10.0,NE,6.9,-,N/A,,Clear,50,2013-01-09 21:35:00
2:55 PM,51.8,11.1,20,30.26,10.0,NE,6.9,-,N/A,,Clear,50,2013-01-09 21:55:00
3:15 PM,51.1,12.0,21,30.26,10.0,NE,5.8,-,N/A,,Clear,50,2013-01-09 22:15:00
3:35 PM,50.9,12.0,21,30.26,10.0,North,4.6,-,N/A,,Clear,10,2013-01-09 22:35:00
3:55 PM,50.5,11.8,21,30.25,10.0,Calm,Calm,-,N/A,,Clear,0,2013-01-09 22:55:00
4:15 PM,50.0,11.7,21,30.24,10.0,North,3.5,-,N/A,,Clear,350,2013-01-09 23:15:00
4:35 PM,47.8,11.8,23,30.23,10.0,NNW,5.8,-,N/A,,Clear,340,2013-01-09 23:35:00
4:55 PM,44.1,10.9,26,30.22,10.0,NNW,5.8,-,N/A,,Clear,340,2013-01-09 23:55:00
5:15 PM,39.6,10.6,30,30.23,10.0,North,5.8,-,N/A,,Clear,360,2013-01-10 00:15:00
5:35 PM,34.3,9.5,36,30.22,10.0,NNE,6.9,-,N/A,,Clear,20,2013-01-10 00:35:00
5:55 PM,32.0,9.9,40,30.22,10.0,NNE,4.6,-,N/A,,Clear,20,2013-01-10 00:55:00
6:15 PM,30.7,9.5,41,30.23,10.0,NNE,4.6,-,N/A,,Clear,20,2013-01-10 01:15:00
6:35 PM,28.2,9.1,45,30.23,10.0,North,3.5,-,N/A,,Clear,360,2013-01-10 01:35:00
6:55 PM,26.8,8.2,46,30.23,10.0,NNE,3.5,-,N/A,,Clear,20,2013-01-10 01:55:00
7:15 PM,26.8,8.4,46,30.22,10.0,North,4.6,-,N/A,,Clear,10,2013-01-10 02:15:00
7:35 PM,23.7,7.3,50,30.23,10.0,Calm,Calm,-,N/A,,Clear,0,2013-01-10 02:35:00
7:55 PM,22.5,7.9,54,30.23,10.0,North,4.6,-,N/A,,Clear,10,2013-01-10 02:55:00
8:15 PM,22.3,8.1,54,30.22,10.0,North,3.5,-,N/A,,Clear,10,2013-01-10 03:15:00
8:35 PM,21.2,7.7,56,30.21,10.0,NNE,3.5,-,N/A,,Clear,30,2013-01-10 03:35:00
8:55 PM,21.6,8.2,57,30.21,10.0,Calm,Calm,-,N/A,,Clear,0,2013-01-10 03:55:00
9:15 PM,21.2,8.8,59,30.21,10.0,NW,6.9,-,N/A,,Clear,320,2013-01-10 04:15:00
9:35 PM,22.3,9.5,58,30.20,10.0,NW,5.8,-,N/A,,Clear,320,2013-01-10 04:35:00
9:55 PM,19.8,8.4,61,30.20,10.0,ENE,4.6,-,N/A,,Clear,60,2013-01-10 04:55:00
10:15 PM,18.7,8.1,63,30.20,10.0,NE,6.9,-,N/A,,Clear,50,2013-01-10 05:15:00
10:35 PM,16.7,7.9,68,30.19,10.0,North,5.8,-,N/A,,Clear,350,2013-01-10 05:35:00
10:55 PM,14.9,6.8,70,30.19,10.0,NW,5.8,-,N/A,,Clear,320,2013-01-10 05:55:00
11:15 PM,16.2,8.6,72,30.19,10.0,Calm,Calm,-,N/A,,Clear,0,2013-01-10 06:15:00
11:35 PM,16.0,7.0,68,30.17,10.0,NNW,3.5,-,N/A,,Clear,340,2013-01-10 06:35:00
11:55 PM,12.6,5.7,74,30.16,10.0,NE,6.9,-,N/A,,Clear,40,2013-01-10 06:55:00